sensor_id;sensor_type;location;lat;lon;timestamp;pressure;altitude;pressure_sealevel;temperature;humidity
62057;BME280;48016;50.284;18.860;2024-03-08T00:01:18;98753.11;;;-1.42;85.08
62057;BME280;48016;50.284;18.860;2024-03-08T00:03:45;98754.23;;;-1.42;85.08
62057;BME280;48016;50.284;18.860;2024-03-08T00:06:11;98750.73;;;-1.43;85.16
62057;BME280;48016;50.284;18.860;2024-03-08T00:08:37;98749.40;;;-1.45;85.51
62057;BME280;48016;50.284;18.860;2024-03-08T00:11:03;98747.38;;;-1.46;85.43
62057;BME280;48016;50.284;18.860;2024-03-08T00:13:29;98750.96;;;-1.47;85.17
62057;BME280;48016;50.284;18.860;2024-03-08T00:15:55;98749.47;;;-1.49;85.33
62057;BME280;48016;50.284;18.860;2024-03-08T00:18:23;98748.94;;;-1.51;85.21
62057;BME280;48016;50.284;18.860;2024-03-08T00:20:49;98749.20;;;-1.53;85.36
62057;BME280;48016;50.284;18.860;2024-03-08T00:23:14;98746.42;;;-1.55;85.54
62057;BME280;48016;50.284;18.860;2024-03-08T00:25:41;98746.55;;;-1.56;85.60
62057;BME280;48016;50.284;18.860;2024-03-08T00:28:07;98744.97;;;-1.58;85.53
62057;BME280;48016;50.284;18.860;2024-03-08T00:30:33;98741.92;;;-1.59;85.84
62057;BME280;48016;50.284;18.860;2024-03-08T00:32:58;98739.66;;;-1.62;85.89
62057;BME280;48016;50.284;18.860;2024-03-08T00:35:25;98739.45;;;-1.63;85.87
62057;BME280;48016;50.284;18.860;2024-03-08T00:37:51;98734.65;;;-1.62;85.94
62057;BME280;48016;50.284;18.860;2024-03-08T00:40:17;98740.48;;;-1.62;85.79
62057;BME280;48016;50.284;18.860;2024-03-08T00:42:43;98735.58;;;-1.63;85.98
62057;BME280;48016;50.284;18.860;2024-03-08T00:45:10;98735.74;;;-1.63;86.15
62057;BME280;48016;50.284;18.860;2024-03-08T00:47:36;98731.02;;;-1.65;86.09
62057;BME280;48016;50.284;18.860;2024-03-08T00:50:02;98731.41;;;-1.65;86.00
62057;BME280;48016;50.284;18.860;2024-03-08T00:52:29;98732.53;;;-1.66;85.82
62057;BME280;48016;50.284;18.860;2024-03-08T00:54:55;98731.17;;;-1.69;86.18
62057;BME280;48016;50.284;18.860;2024-03-08T00:57:21;98730.68;;;-1.71;86.63
62057;BME280;48016;50.284;18.860;2024-03-08T00:59:47;98727.52;;;-1.73;86.33
62057;BME280;48016;50.284;18.860;2024-03-08T01:02:14;98722.60;;;-1.73;86.19
62057;BME280;48016;50.284;18.860;2024-03-08T01:04:39;98718.36;;;-1.75;86.50
62057;BME280;48016;50.284;18.860;2024-03-08T01:07:05;98719.63;;;-1.77;86.55
62057;BME280;48016;50.284;18.860;2024-03-08T01:09:31;98720.35;;;-1.77;86.34
62057;BME280;48016;50.284;18.860;2024-03-08T01:11:57;98720.17;;;-1.77;86.33
62057;BME280;48016;50.284;18.860;2024-03-08T01:14:24;98713.29;;;-1.79;86.59
62057;BME280;48016;50.284;18.860;2024-03-08T01:16:51;98709.23;;;-1.81;86.95
62057;BME280;48016;50.284;18.860;2024-03-08T01:19:17;98707.32;;;-1.83;86.81
62057;BME280;48016;50.284;18.860;2024-03-08T01:21:43;98709.45;;;-1.83;86.74
62057;BME280;48016;50.284;18.860;2024-03-08T01:24:09;98706.43;;;-1.81;86.49
62057;BME280;48016;50.284;18.860;2024-03-08T01:26:35;98704.61;;;-1.80;86.34
62057;BME280;48016;50.284;18.860;2024-03-08T01:29:01;98700.96;;;-1.81;86.62
62057;BME280;48016;50.284;18.860;2024-03-08T01:31:29;98700.06;;;-1.81;86.63
62057;BME280;48016;50.284;18.860;2024-03-08T01:33:58;98696.95;;;-1.83;86.66
62057;BME280;48016;50.284;18.860;2024-03-08T01:36:24;98689.47;;;-1.86;86.91
62057;BME280;48016;50.284;18.860;2024-03-08T01:38:51;98686.98;;;-1.89;87.12
62057;BME280;48016;50.284;18.860;2024-03-08T01:41:17;98682.19;;;-1.92;87.28
62057;BME280;48016;50.284;18.860;2024-03-08T01:43:44;98679.73;;;-1.95;87.49
62057;BME280;48016;50.284;18.860;2024-03-08T01:46:12;98677.55;;;-1.96;87.46
62057;BME280;48016;50.284;18.860;2024-03-08T01:48:41;98677.20;;;-1.97;87.06
62057;BME280;48016;50.284;18.860;2024-03-08T01:51:07;98676.95;;;-1.96;87.18
62057;BME280;48016;50.284;18.860;2024-03-08T01:53:34;98673.40;;;-1.96;86.95
62057;BME280;48016;50.284;18.860;2024-03-08T01:56:00;98672.08;;;-1.96;87.31
62057;BME280;48016;50.284;18.860;2024-03-08T01:58:29;98669.98;;;-1.98;87.27
62057;BME280;48016;50.284;18.860;2024-03-08T02:00:56;98666.38;;;-2.01;87.37
62057;BME280;48016;50.284;18.860;2024-03-08T02:03:23;98669.95;;;-2.03;87.27
62057;BME280;48016;50.284;18.860;2024-03-08T02:05:49;98666.58;;;-2.08;87.87
62057;BME280;48016;50.284;18.860;2024-03-08T02:08:17;98666.97;;;-2.10;87.85
62057;BME280;48016;50.284;18.860;2024-03-08T02:10:44;98667.30;;;-2.11;87.74
62057;BME280;48016;50.284;18.860;2024-03-08T02:13:11;98670.17;;;-2.12;87.63
62057;BME280;48016;50.284;18.860;2024-03-08T02:16:03;98669.75;;;-2.13;87.63
62057;BME280;48016;50.284;18.860;2024-03-08T02:18:30;98667.47;;;-2.16;87.96
62057;BME280;48016;50.284;18.860;2024-03-08T02:21:02;98660.61;;;-2.18;87.91
62057;BME280;48016;50.284;18.860;2024-03-08T02:23:28;98657.86;;;-2.20;88.02
62057;BME280;48016;50.284;18.860;2024-03-08T02:25:56;98657.95;;;-2.21;88.10
62057;BME280;48016;50.284;18.860;2024-03-08T02:28:23;98660.17;;;-2.23;88.24
62057;BME280;48016;50.284;18.860;2024-03-08T02:30:51;98659.27;;;-2.21;87.83
62057;BME280;48016;50.284;18.860;2024-03-08T02:33:18;98660.02;;;-2.20;87.70
62057;BME280;48016;50.284;18.860;2024-03-08T02:35:44;98657.50;;;-2.22;87.91
62057;BME280;48016;50.284;18.860;2024-03-08T02:38:20;98655.23;;;-2.22;87.88
62057;BME280;48016;50.284;18.860;2024-03-08T02:40:48;98653.96;;;-2.23;88.04
62057;BME280;48016;50.284;18.860;2024-03-08T02:43:15;98656.88;;;-2.22;87.89
62057;BME280;48016;50.284;18.860;2024-03-08T02:45:41;98657.59;;;-2.21;87.70
62057;BME280;48016;50.284;18.860;2024-03-08T02:48:08;98657.48;;;-2.18;87.66
62057;BME280;48016;50.284;18.860;2024-03-08T02:50:34;98659.32;;;-2.16;87.42
62057;BME280;48016;50.284;18.860;2024-03-08T02:53:01;98654.33;;;-2.17;87.64
62057;BME280;48016;50.284;18.860;2024-03-08T02:55:27;98653.83;;;-2.17;87.69
62057;BME280;48016;50.284;18.860;2024-03-08T02:57:53;98656.80;;;-2.18;87.78
62057;BME280;48016;50.284;18.860;2024-03-08T03:00:23;98659.33;;;-2.19;87.61
62057;BME280;48016;50.284;18.860;2024-03-08T03:02:49;98660.55;;;-2.20;87.87
62057;BME280;48016;50.284;18.860;2024-03-08T03:05:20;98656.77;;;-2.21;87.82
62057;BME280;48016;50.284;18.860;2024-03-08T03:07:46;98657.82;;;-2.22;87.70
62057;BME280;48016;50.284;18.860;2024-03-08T03:10:12;98652.77;;;-2.22;87.79
62057;BME280;48016;50.284;18.860;2024-03-08T03:12:38;98650.84;;;-2.22;87.56
62057;BME280;48016;50.284;18.860;2024-03-08T03:15:04;98651.20;;;-2.22;87.56
62057;BME280;48016;50.284;18.860;2024-03-08T03:17:32;98648.70;;;-2.23;87.73
62057;BME280;48016;50.284;18.860;2024-03-08T03:19:58;98643.45;;;-2.24;87.76
62057;BME280;48016;50.284;18.860;2024-03-08T03:22:24;98647.33;;;-2.24;87.77
62057;BME280;48016;50.284;18.860;2024-03-08T03:24:51;98651.46;;;-2.25;87.69
62057;BME280;48016;50.284;18.860;2024-03-08T03:27:17;98653.29;;;-2.23;87.55
62057;BME280;48016;50.284;18.860;2024-03-08T03:29:43;98652.27;;;-2.22;87.28
62057;BME280;48016;50.284;18.860;2024-03-08T03:32:11;98659.41;;;-2.23;87.41
62057;BME280;48016;50.284;18.860;2024-03-08T03:34:38;98654.77;;;-2.26;87.43
62057;BME280;48016;50.284;18.860;2024-03-08T03:37:04;98655.34;;;-2.27;87.45
62057;BME280;48016;50.284;18.860;2024-03-08T03:39:30;98653.48;;;-2.26;87.32
62057;BME280;48016;50.284;18.860;2024-03-08T03:41:58;98651.63;;;-2.28;87.52
62057;BME280;48016;50.284;18.860;2024-03-08T03:44:24;98644.65;;;-2.29;87.56
62057;BME280;48016;50.284;18.860;2024-03-08T03:46:50;98646.52;;;-2.30;87.66
62057;BME280;48016;50.284;18.860;2024-03-08T03:49:16;98645.96;;;-2.30;87.60
62057;BME280;48016;50.284;18.860;2024-03-08T03:51:42;98650.34;;;-2.28;87.48
62057;BME280;48016;50.284;18.860;2024-03-08T03:54:10;98651.47;;;-2.27;87.35
62057;BME280;48016;50.284;18.860;2024-03-08T03:56:37;98647.83;;;-2.27;87.33
62057;BME280;48016;50.284;18.860;2024-03-08T03:59:03;98647.02;;;-2.28;87.33
62057;BME280;48016;50.284;18.860;2024-03-08T04:01:29;98649.91;;;-2.28;87.27
62057;BME280;48016;50.284;18.860;2024-03-08T04:03:55;98645.05;;;-2.29;87.26
62057;BME280;48016;50.284;18.860;2024-03-08T04:06:21;98645.84;;;-2.30;87.33
62057;BME280;48016;50.284;18.860;2024-03-08T04:08:48;98641.87;;;-2.31;87.24
62057;BME280;48016;50.284;18.860;2024-03-08T04:11:14;98639.13;;;-2.32;87.22
62057;BME280;48016;50.284;18.860;2024-03-08T04:13:42;98634.32;;;-2.33;87.28
62057;BME280;48016;50.284;18.860;2024-03-08T04:16:08;98632.50;;;-2.33;87.23
62057;BME280;48016;50.284;18.860;2024-03-08T04:18:34;98633.95;;;-2.31;87.06
62057;BME280;48016;50.284;18.860;2024-03-08T04:21:05;98636.00;;;-2.31;87.14
62057;BME280;48016;50.284;18.860;2024-03-08T04:23:34;98637.45;;;-2.33;87.16
62057;BME280;48016;50.284;18.860;2024-03-08T04:26:01;98636.80;;;-2.33;87.12
62057;BME280;48016;50.284;18.860;2024-03-08T04:28:27;98634.87;;;-2.36;87.17
62057;BME280;48016;50.284;18.860;2024-03-08T04:30:53;98636.70;;;-2.35;87.08
62057;BME280;48016;50.284;18.860;2024-03-08T04:33:20;98639.48;;;-2.37;87.33
62057;BME280;48016;50.284;18.860;2024-03-08T04:35:47;98638.45;;;-2.37;87.24
62057;BME280;48016;50.284;18.860;2024-03-08T04:38:13;98636.76;;;-2.39;87.46
62057;BME280;48016;50.284;18.860;2024-03-08T04:40:39;98635.27;;;-2.40;87.33
62057;BME280;48016;50.284;18.860;2024-03-08T04:43:05;98638.44;;;-2.40;87.36
62057;BME280;48016;50.284;18.860;2024-03-08T04:45:31;98636.73;;;-2.42;87.45
62057;BME280;48016;50.284;18.860;2024-03-08T04:47:57;98638.05;;;-2.43;87.38
62057;BME280;48016;50.284;18.860;2024-03-08T04:50:23;98637.98;;;-2.42;87.41
62057;BME280;48016;50.284;18.860;2024-03-08T04:52:49;98638.02;;;-2.43;87.57
62057;BME280;48016;50.284;18.860;2024-03-08T04:55:15;98642.80;;;-2.45;87.58
62057;BME280;48016;50.284;18.860;2024-03-08T04:57:41;98644.00;;;-2.46;87.76
62057;BME280;48016;50.284;18.860;2024-03-08T05:00:10;98639.63;;;-2.45;87.51
62057;BME280;48016;50.284;18.860;2024-03-08T05:02:37;98643.11;;;-2.44;87.70
62057;BME280;48016;50.284;18.860;2024-03-08T05:05:08;98645.65;;;-2.45;87.69
62057;BME280;48016;50.284;18.860;2024-03-08T05:07:39;98646.81;;;-2.44;87.65
62057;BME280;48016;50.284;18.860;2024-03-08T05:10:06;98646.35;;;-2.46;87.90
62057;BME280;48016;50.284;18.860;2024-03-08T05:12:35;98647.56;;;-2.46;87.78
62057;BME280;48016;50.284;18.860;2024-03-08T05:15:01;98649.67;;;-2.46;87.90
62057;BME280;48016;50.284;18.860;2024-03-08T05:17:27;98646.14;;;-2.46;87.91
62057;BME280;48016;50.284;18.860;2024-03-08T05:19:53;98649.13;;;-2.44;87.83
62057;BME280;48016;50.284;18.860;2024-03-08T05:22:19;98650.58;;;-2.43;87.71
62057;BME280;48016;50.284;18.860;2024-03-08T05:24:45;98649.86;;;-2.41;87.75
62057;BME280;48016;50.284;18.860;2024-03-08T05:27:11;98653.61;;;-2.40;87.84
62057;BME280;48016;50.284;18.860;2024-03-08T05:29:38;98657.62;;;-2.36;87.75
62057;BME280;48016;50.284;18.860;2024-03-08T05:32:04;98655.10;;;-2.33;87.72
62057;BME280;48016;50.284;18.860;2024-03-08T05:34:30;98655.46;;;-2.30;87.75
62057;BME280;48016;50.284;18.860;2024-03-08T05:36:56;98657.27;;;-2.26;87.75
62057;BME280;48016;50.284;18.860;2024-03-08T05:39:23;98656.90;;;-2.21;87.53
62057;BME280;48016;50.284;18.860;2024-03-08T05:41:49;98659.48;;;-2.16;87.60
62057;BME280;48016;50.284;18.860;2024-03-08T05:44:16;98660.72;;;-2.07;87.54
62057;BME280;48016;50.284;18.860;2024-03-08T05:46:45;98664.13;;;-2.01;87.45
62057;BME280;48016;50.284;18.860;2024-03-08T05:49:12;98661.65;;;-1.95;87.41
62057;BME280;48016;50.284;18.860;2024-03-08T05:51:40;98660.35;;;-1.86;87.21
62057;BME280;48016;50.284;18.860;2024-03-08T05:54:10;98663.95;;;-1.77;87.13
62057;BME280;48016;50.284;18.860;2024-03-08T05:56:38;98663.61;;;-1.67;86.99
62057;BME280;48016;50.284;18.860;2024-03-08T05:59:04;98666.55;;;-1.62;86.53
62057;BME280;48016;50.284;18.860;2024-03-08T06:01:30;98662.42;;;-1.55;86.63
62057;BME280;48016;50.284;18.860;2024-03-08T06:04:03;98667.05;;;-1.46;86.70
62057;BME280;48016;50.284;18.860;2024-03-08T06:06:29;98660.80;;;-1.39;86.57
62057;BME280;48016;50.284;18.860;2024-03-08T06:08:55;98664.11;;;-1.31;86.43
62057;BME280;48016;50.284;18.860;2024-03-08T06:11:25;98665.12;;;-1.26;86.09
62057;BME280;48016;50.284;18.860;2024-03-08T06:13:56;98665.23;;;-1.21;85.92
62057;BME280;48016;50.284;18.860;2024-03-08T06:16:28;98663.84;;;-1.12;86.17
62057;BME280;48016;50.284;18.860;2024-03-08T06:18:56;98664.07;;;-1.01;86.12
62057;BME280;48016;50.284;18.860;2024-03-08T06:21:23;98665.29;;;-0.92;85.85
62057;BME280;48016;50.284;18.860;2024-03-08T06:23:54;98667.35;;;-0.85;85.52
62057;BME280;48016;50.284;18.860;2024-03-08T06:26:21;98667.29;;;-0.79;85.30
62057;BME280;48016;50.284;18.860;2024-03-08T06:28:48;98669.66;;;-0.72;85.08
62057;BME280;48016;50.284;18.860;2024-03-08T06:31:14;98667.94;;;-0.66;84.97
62057;BME280;48016;50.284;18.860;2024-03-08T06:33:40;98666.09;;;-0.58;84.78
62057;BME280;48016;50.284;18.860;2024-03-08T06:36:06;98659.78;;;-0.52;84.44
62057;BME280;48016;50.284;18.860;2024-03-08T06:38:32;98660.18;;;-0.42;84.64
62057;BME280;48016;50.284;18.860;2024-03-08T06:40:58;98658.91;;;-0.26;84.44
62057;BME280;48016;50.284;18.860;2024-03-08T06:43:24;98659.95;;;-0.21;83.16
62057;BME280;48016;50.284;18.860;2024-03-08T06:45:58;98659.88;;;-0.24;82.46
62057;BME280;48016;50.284;18.860;2024-03-08T06:48:24;98658.69;;;-0.21;83.15
62057;BME280;48016;50.284;18.860;2024-03-08T06:50:50;98656.25;;;-0.15;83.23
62057;BME280;48016;50.284;18.860;2024-03-08T06:53:16;98657.35;;;-0.13;82.50
62057;BME280;48016;50.284;18.860;2024-03-08T06:55:45;98656.74;;;-0.15;82.24
62057;BME280;48016;50.284;18.860;2024-03-08T06:58:11;98659.23;;;-0.15;82.31
62057;BME280;48016;50.284;18.860;2024-03-08T07:00:37;98656.84;;;-0.10;82.65
62057;BME280;48016;50.284;18.860;2024-03-08T07:03:03;98653.23;;;-0.03;82.47
62057;BME280;48016;50.284;18.860;2024-03-08T07:05:30;98657.11;;;0.02;82.33
62057;BME280;48016;50.284;18.860;2024-03-08T07:07:56;98656.21;;;-0.01;81.39
62057;BME280;48016;50.284;18.860;2024-03-08T07:10:22;98653.14;;;-0.04;81.40
62057;BME280;48016;50.284;18.860;2024-03-08T07:12:51;98656.71;;;0.11;81.97
62057;BME280;48016;50.284;18.860;2024-03-08T07:15:19;98651.72;;;0.19;80.88
62057;BME280;48016;50.284;18.860;2024-03-08T07:17:48;98650.27;;;0.21;80.66
62057;BME280;48016;50.284;18.860;2024-03-08T07:20:15;98650.98;;;0.19;80.32
62057;BME280;48016;50.284;18.860;2024-03-08T07:22:48;98651.95;;;0.20;80.72
62057;BME280;48016;50.284;18.860;2024-03-08T07:25:17;98654.61;;;0.23;80.41
62057;BME280;48016;50.284;18.860;2024-03-08T07:27:50;98653.23;;;0.29;80.81
62057;BME280;48016;50.284;18.860;2024-03-08T07:30:17;98658.38;;;0.36;80.93
62057;BME280;48016;50.284;18.860;2024-03-08T07:33:02;98656.27;;;0.42;80.31
62057;BME280;48016;50.284;18.860;2024-03-08T07:35:29;98655.89;;;0.47;80.52
62057;BME280;48016;50.284;18.860;2024-03-08T07:37:56;98654.05;;;0.52;80.42
62057;BME280;48016;50.284;18.860;2024-03-08T07:40:22;98655.92;;;0.60;80.75
62057;BME280;48016;50.284;18.860;2024-03-08T07:42:49;98656.61;;;0.60;79.74
62057;BME280;48016;50.284;18.860;2024-03-08T07:45:16;98654.40;;;0.61;79.80
62057;BME280;48016;50.284;18.860;2024-03-08T07:47:42;98649.50;;;0.59;79.34
62057;BME280;48016;50.284;18.860;2024-03-08T07:50:09;98656.07;;;0.62;79.48
62057;BME280;48016;50.284;18.860;2024-03-08T07:52:35;98655.04;;;0.70;79.99
62057;BME280;48016;50.284;18.860;2024-03-08T07:55:05;98654.60;;;0.77;79.70
62057;BME280;48016;50.284;18.860;2024-03-08T07:57:31;98654.14;;;0.85;79.83
62057;BME280;48016;50.284;18.860;2024-03-08T07:59:58;98654.75;;;0.91;79.51
62057;BME280;48016;50.284;18.860;2024-03-08T08:02:23;98658.11;;;0.88;78.08
62057;BME280;48016;50.284;18.860;2024-03-08T08:04:49;98660.70;;;0.74;77.29
62057;BME280;48016;50.284;18.860;2024-03-08T08:07:15;98663.14;;;0.76;78.07
62057;BME280;48016;50.284;18.860;2024-03-08T08:09:42;98661.47;;;0.79;77.89
62057;BME280;48016;50.284;18.860;2024-03-08T08:12:11;98665.92;;;0.79;77.52
62057;BME280;48016;50.284;18.860;2024-03-08T08:14:38;98669.56;;;0.78;77.47
62057;BME280;48016;50.284;18.860;2024-03-08T08:17:05;98667.57;;;0.84;78.27
62057;BME280;48016;50.284;18.860;2024-03-08T08:19:31;98673.65;;;0.93;78.13
62057;BME280;48016;50.284;18.860;2024-03-08T08:21:57;98672.16;;;1.01;78.16
62057;BME280;48016;50.284;18.860;2024-03-08T08:24:23;98669.46;;;1.04;77.65
62057;BME280;48016;50.284;18.860;2024-03-08T08:26:50;98670.13;;;1.04;77.29
62057;BME280;48016;50.284;18.860;2024-03-08T08:29:16;98671.29;;;0.90;76.43
62057;BME280;48016;50.284;18.860;2024-03-08T08:31:42;98672.56;;;0.87;77.30
62057;BME280;48016;50.284;18.860;2024-03-08T08:34:11;98669.25;;;0.76;76.47
62057;BME280;48016;50.284;18.860;2024-03-08T08:36:37;98670.00;;;0.74;77.08
62057;BME280;48016;50.284;18.860;2024-03-08T08:39:05;98670.77;;;0.68;76.51
62057;BME280;48016;50.284;18.860;2024-03-08T08:41:37;98667.77;;;0.63;76.74
62057;BME280;48016;50.284;18.860;2024-03-08T08:44:02;98667.15;;;0.64;76.87
62057;BME280;48016;50.284;18.860;2024-03-08T08:46:29;98667.04;;;0.65;76.66
62057;BME280;48016;50.284;18.860;2024-03-08T08:48:55;98669.54;;;0.65;76.77
62057;BME280;48016;50.284;18.860;2024-03-08T08:51:21;98666.28;;;0.64;76.70
62057;BME280;48016;50.284;18.860;2024-03-08T08:53:48;98666.22;;;0.64;76.55
62057;BME280;48016;50.284;18.860;2024-03-08T08:56:14;98666.18;;;0.68;76.61
62057;BME280;48016;50.284;18.860;2024-03-08T08:58:42;98668.38;;;0.81;76.83
62057;BME280;48016;50.284;18.860;2024-03-08T09:01:09;98670.15;;;0.94;76.82
62057;BME280;48016;50.284;18.860;2024-03-08T09:03:38;98670.16;;;1.04;76.33
62057;BME280;48016;50.284;18.860;2024-03-08T09:06:07;98666.14;;;1.13;76.12
62057;BME280;48016;50.284;18.860;2024-03-08T09:08:36;98661.61;;;1.15;75.44
62057;BME280;48016;50.284;18.860;2024-03-08T09:11:03;98659.86;;;1.09;75.29
62057;BME280;48016;50.284;18.860;2024-03-08T09:13:29;98660.52;;;1.09;75.57
62057;BME280;48016;50.284;18.860;2024-03-08T09:15:56;98658.93;;;1.16;75.43
62057;BME280;48016;50.284;18.860;2024-03-08T09:18:22;98653.77;;;1.23;75.56
62057;BME280;48016;50.284;18.860;2024-03-08T09:20:49;98654.02;;;1.26;74.91
62057;BME280;48016;50.284;18.860;2024-03-08T09:23:19;98652.08;;;1.24;74.93
62057;BME280;48016;50.284;18.860;2024-03-08T09:25:45;98647.81;;;1.32;75.07
62057;BME280;48016;50.284;18.860;2024-03-08T09:28:12;98648.73;;;1.37;75.09
62057;BME280;48016;50.284;18.860;2024-03-08T09:30:39;98649.44;;;1.49;75.24
62057;BME280;48016;50.284;18.860;2024-03-08T09:33:05;98646.50;;;1.66;75.54
62057;BME280;48016;50.284;18.860;2024-03-08T09:35:32;98642.96;;;1.76;74.84
62057;BME280;48016;50.284;18.860;2024-03-08T09:37:58;98641.60;;;1.83;75.17
62057;BME280;48016;50.284;18.860;2024-03-08T09:40:24;98647.77;;;1.89;74.40
62057;BME280;48016;50.284;18.860;2024-03-08T09:42:51;98647.55;;;1.97;73.65
62057;BME280;48016;50.284;18.860;2024-03-08T09:45:20;98649.86;;;2.08;73.75
62057;BME280;48016;50.284;18.860;2024-03-08T09:47:50;98648.77;;;2.13;72.84
62057;BME280;48016;50.284;18.860;2024-03-08T09:50:16;98648.16;;;2.25;72.98
62057;BME280;48016;50.284;18.860;2024-03-08T09:52:46;98642.27;;;2.38;72.44
62057;BME280;48016;50.284;18.860;2024-03-08T09:55:12;98643.48;;;2.51;72.17
62057;BME280;48016;50.284;18.860;2024-03-08T09:57:43;98639.50;;;2.59;71.33
62057;BME280;48016;50.284;18.860;2024-03-08T10:00:29;98638.54;;;2.69;71.47
62057;BME280;48016;50.284;18.860;2024-03-08T10:03:00;98638.91;;;2.76;71.10
62057;BME280;48016;50.284;18.860;2024-03-08T10:05:26;98636.05;;;2.87;70.78
62057;BME280;48016;50.284;18.860;2024-03-08T10:07:52;98633.55;;;2.94;71.12
62057;BME280;48016;50.284;18.860;2024-03-08T10:10:18;98631.73;;;3.08;71.70
62057;BME280;48016;50.284;18.860;2024-03-08T10:12:45;98634.95;;;3.09;69.20
62057;BME280;48016;50.284;18.860;2024-03-08T10:15:11;98634.59;;;3.26;69.50
62057;BME280;48016;50.284;18.860;2024-03-08T10:17:38;98637.16;;;3.39;69.61
62057;BME280;48016;50.284;18.860;2024-03-08T10:20:17;98633.47;;;3.41;69.39
62057;BME280;48016;50.284;18.860;2024-03-08T10:22:43;98628.16;;;3.56;68.31
62057;BME280;48016;50.284;18.860;2024-03-08T10:25:13;98631.53;;;3.69;68.91
62057;BME280;48016;50.284;18.860;2024-03-08T10:27:39;98640.99;;;3.74;67.52
62057;BME280;48016;50.284;18.860;2024-03-08T10:30:10;98643.54;;;3.55;67.22
62057;BME280;48016;50.284;18.860;2024-03-08T10:32:38;98641.39;;;3.37;67.47
62057;BME280;48016;50.284;18.860;2024-03-08T10:35:05;98646.58;;;3.09;66.78
62057;BME280;48016;50.284;18.860;2024-03-08T10:37:37;98635.76;;;3.00;68.34
62057;BME280;48016;50.284;18.860;2024-03-08T10:40:17;98634.88;;;3.11;68.45
62057;BME280;48016;50.284;18.860;2024-03-08T10:42:54;98630.51;;;3.01;67.45
62057;BME280;48016;50.284;18.860;2024-03-08T10:45:37;98628.38;;;2.86;67.84
62057;BME280;48016;50.284;18.860;2024-03-08T10:50:41;98622.11;;;2.82;68.49
62057;BME280;48016;50.284;18.860;2024-03-08T10:53:14;98623.75;;;2.75;67.98
62057;BME280;48016;50.284;18.860;2024-03-08T10:55:40;98618.20;;;2.74;68.04
62057;BME280;48016;50.284;18.860;2024-03-08T10:58:07;98616.92;;;2.65;67.73
62057;BME280;48016;50.284;18.860;2024-03-08T11:00:35;98616.61;;;2.68;68.65
62057;BME280;48016;50.284;18.860;2024-03-08T11:03:01;98610.96;;;2.72;68.54
62057;BME280;48016;50.284;18.860;2024-03-08T11:08:02;98604.70;;;2.93;69.19
62057;BME280;48016;50.284;18.860;2024-03-08T11:10:29;98598.69;;;3.10;69.43
62057;BME280;48016;50.284;18.860;2024-03-08T11:12:56;98602.08;;;3.23;69.14
62057;BME280;48016;50.284;18.860;2024-03-08T11:15:24;98604.00;;;3.34;68.60
62057;BME280;48016;50.284;18.860;2024-03-08T11:17:50;98593.75;;;3.44;68.29
62057;BME280;48016;50.284;18.860;2024-03-08T11:20:18;98594.19;;;3.51;68.25
62057;BME280;48016;50.284;18.860;2024-03-08T11:22:54;98588.77;;;3.61;67.89
62057;BME280;48016;50.284;18.860;2024-03-08T11:25:40;98587.55;;;3.71;67.75
62057;BME280;48016;50.284;18.860;2024-03-08T11:28:19;98583.65;;;3.77;67.60
62057;BME280;48016;50.284;18.860;2024-03-08T11:33:35;98575.17;;;3.82;66.73
62057;BME280;48016;50.284;18.860;2024-03-08T11:38:43;98570.54;;;4.01;66.94
62057;BME280;48016;50.284;18.860;2024-03-08T11:41:10;98564.81;;;4.11;67.21
62057;BME280;48016;50.284;18.860;2024-03-08T11:43:42;98568.03;;;4.19;66.10
62057;BME280;48016;50.284;18.860;2024-03-08T11:46:12;98563.55;;;4.07;63.53
62057;BME280;48016;50.284;18.860;2024-03-08T11:48:42;98558.48;;;3.99;64.75
62057;BME280;48016;50.284;18.860;2024-03-08T11:51:11;98557.54;;;4.00;65.20
62057;BME280;48016;50.284;18.860;2024-03-08T11:53:38;98555.92;;;4.09;66.05
62057;BME280;48016;50.284;18.860;2024-03-08T11:56:12;98554.80;;;4.18;65.67
62057;BME280;48016;50.284;18.860;2024-03-08T11:58:39;98549.98;;;4.23;64.53
62057;BME280;48016;50.284;18.860;2024-03-08T12:01:07;98546.27;;;4.24;64.57
62057;BME280;48016;50.284;18.860;2024-03-08T12:03:35;98543.21;;;4.28;64.83
62057;BME280;48016;50.284;18.860;2024-03-08T12:06:01;98544.94;;;4.37;64.83
62057;BME280;48016;50.284;18.860;2024-03-08T12:08:31;98542.38;;;4.42;64.08
62057;BME280;48016;50.284;18.860;2024-03-08T12:10:58;98541.59;;;4.43;63.38
62057;BME280;48016;50.284;18.860;2024-03-08T12:13:27;98540.88;;;4.45;63.67
62057;BME280;48016;50.284;18.860;2024-03-08T12:15:58;98532.73;;;4.45;63.30
62057;BME280;48016;50.284;18.860;2024-03-08T12:18:28;98536.28;;;4.39;61.89
62057;BME280;48016;50.284;18.860;2024-03-08T12:21:04;98534.82;;;4.31;62.25
62057;BME280;48016;50.284;18.860;2024-03-08T12:23:34;98532.46;;;4.33;62.16
62057;BME280;48016;50.284;18.860;2024-03-08T12:26:14;98530.13;;;4.34;62.62
62057;BME280;48016;50.284;18.860;2024-03-08T12:28:45;98529.67;;;4.32;61.42
62057;BME280;48016;50.284;18.860;2024-03-08T12:31:15;98526.12;;;4.35;61.67
62057;BME280;48016;50.284;18.860;2024-03-08T12:33:51;98520.39;;;4.39;62.36
62057;BME280;48016;50.284;18.860;2024-03-08T12:36:21;98517.48;;;4.46;62.19
62057;BME280;48016;50.284;18.860;2024-03-08T12:38:47;98508.98;;;4.50;62.44
62057;BME280;48016;50.284;18.860;2024-03-08T12:41:17;98505.98;;;4.57;63.02
62057;BME280;48016;50.284;18.860;2024-03-08T12:43:44;98506.69;;;4.62;63.05
62057;BME280;48016;50.284;18.860;2024-03-08T12:46:20;98505.41;;;4.62;61.78
62057;BME280;48016;50.284;18.860;2024-03-08T12:48:47;98494.42;;;4.59;61.87
62057;BME280;48016;50.284;18.860;2024-03-08T12:51:15;98497.10;;;4.61;61.92
62057;BME280;48016;50.284;18.860;2024-03-08T12:53:42;98498.95;;;4.60;61.63
62057;BME280;48016;50.284;18.860;2024-03-08T12:56:28;98495.36;;;4.61;62.04
62057;BME280;48016;50.284;18.860;2024-03-08T12:58:55;98491.02;;;4.66;62.22
62057;BME280;48016;50.284;18.860;2024-03-08T13:01:21;98489.82;;;4.69;62.29
62057;BME280;48016;50.284;18.860;2024-03-08T13:03:48;98488.98;;;4.68;60.93
62057;BME280;48016;50.284;18.860;2024-03-08T13:06:15;98486.54;;;4.73;62.32
62057;BME280;48016;50.284;18.860;2024-03-08T13:08:41;98478.63;;;4.83;62.84